Time;durP1;ratioP1;P1;durP2;ratioP2;P2;SDS_P1;SDS_P2;PMS_P1;PMS_P2;Temp;Humidity;BMP_temperature;BMP_pressure;BME280_temperature;BME280_humidity;BME280_pressure;Samples;Min_cycle;Max_cycle;Signal;HPM_P1;HPM_P2
2022/04/02 00:01:42;;;;;;;3.40;2.90;;;;;;;;;;8157241;28;20268;-57
2022/04/02 00:05:42;;;;;;;3.65;2.70;;;;;;;;;;8151278;29;20031;-56
2022/04/02 00:09:43;;;;;;;3.58;2.92;;;;;;;;;;8143859;28;20042;-57
2022/04/02 00:13:43;;;;;;;3.10;2.78;;;;;;;;;;8149819;29;20020;-57
2022/04/02 00:17:43;;;;;;;5.07;2.85;;;;;;;;;;8146384;28;20046;-56
2022/04/02 00:21:43;;;;;;;4.03;2.60;;;;;;;;;;8147415;28;20026;-56
2022/04/02 00:25:43;;;;;;;2.63;2.40;;;;;;;;;;8146049;28;20031;-56
2022/04/02 00:29:44;;;;;;;3.00;2.40;;;;;;;;;;8147467;28;20039;-56
2022/04/02 00:33:45;;;;;;;4.45;3.17;;;;;;;;;;8146780;28;20047;-57
2022/04/02 00:37:45;;;;;;;3.92;2.50;;;;;;;;;;8148078;28;20251;-57
2022/04/02 00:41:45;;;;;;;2.60;2.40;;;;;;;;;;8147885;29;20704;-57
2022/04/02 00:45:46;;;;;;;2.95;2.50;;;;;;;;;;8147331;28;20042;-57
2022/04/02 00:49:46;;;;;;;3.30;2.28;;;;;;;;;;8147120;28;20319;-57
2022/04/02 00:53:47;;;;;;;2.53;1.95;;;;;;;;;;8146473;28;20019;-57
2022/04/02 00:57:48;;;;;;;3.42;2.88;;;;;;;;;;8147503;28;20031;-56
2022/04/02 01:01:48;;;;;;;2.90;2.65;;;;;;;;;;8146730;28;20072;-57
2022/04/02 01:05:48;;;;;;;2.50;2.30;;;;;;;;;;8145286;28;20033;-57
2022/04/02 01:09:49;;;;;;;3.78;2.40;;;;;;;;;;8145382;28;20723;-57
2022/04/02 01:13:49;;;;;;;3.43;2.20;;;;;;;;;;8147171;28;20213;-56
2022/04/02 01:17:49;;;;;;;2.60;2.40;;;;;;;;;;8145251;28;20279;-56
2022/04/02 01:21:49;;;;;;;2.30;2.10;;;;;;;;;;8152440;28;20027;-56
2022/04/02 01:25:50;;;;;;;2.65;2.45;;;;;;;;;;8151269;28;20031;-57
2022/04/02 01:29:50;;;;;;;4.63;2.38;;;;;;;;;;8152261;29;20483;-56
2022/04/02 01:33:51;;;;;;;4.00;2.45;;;;;;;;;;8153027;28;20143;-57
2022/04/02 01:37:51;;;;;;;3.17;2.20;;;;;;;;;;8154150;29;20068;-57
2022/04/02 01:41:51;;;;;;;4.78;2.30;;;;;;;;;;8150876;28;20063;-57
2022/04/02 01:45:56;;;;;;;4.38;2.08;;;;;;;;;;8152653;28;20046;-57
2022/04/02 01:49:56;;;;;;;2.97;1.98;;;;;;;;;;8149318;28;20031;-57
2022/04/02 01:53:56;;;;;;;3.38;2.33;;;;;;;;;;8151805;28;20402;-57
2022/04/02 01:57:56;;;;;;;5.25;1.85;;;;;;;;;;8152707;28;20114;-56
2022/04/02 02:01:57;;;;;;;3.53;2.03;;;;;;;;;;8150086;28;20046;-57
2022/04/02 02:05:57;;;;;;;2.30;2.10;;;;;;;;;;8151363;29;20271;-56
2022/04/02 02:09:58;;;;;;;4.60;2.53;;;;;;;;;;8150967;28;20133;-57
2022/04/02 02:13:58;;;;;;;3.25;2.05;;;;;;;;;;8150183;28;20130;-56
2022/04/02 02:17:58;;;;;;;2.67;2.33;;;;;;;;;;8152303;28;20266;-56
2022/04/02 02:21:59;;;;;;;3.85;2.28;;;;;;;;;;8151398;28;20039;-56
2022/04/02 02:25:59;;;;;;;2.30;1.98;;;;;;;;;;8150040;28;20409;-56
2022/04/02 02:29:59;;;;;;;3.60;1.88;;;;;;;;;;8149147;28;20035;-56
2022/04/02 02:38:22;;;;;;;2.22;2.03;;;;;;;;;;8150383;29;20039;-55
2022/04/02 02:42:22;;;;;;;2.50;2.17;;;;;;;;;;8150026;29;20026;-56
2022/04/02 02:46:22;;;;;;;2.83;2.13;;;;;;;;;;8152728;28;20041;-57
2022/04/02 02:50:22;;;;;;;2.72;2.00;;;;;;;;;;8150319;28;20463;-57
2022/04/02 02:54:22;;;;;;;2.17;1.95;;;;;;;;;;8152992;28;20043;-56
2022/04/02 02:58:22;;;;;;;3.20;2.15;;;;;;;;;;8149414;29;20036;-57
2022/04/02 03:02:23;;;;;;;2.78;2.33;;;;;;;;;;8150535;28;20492;-56
2022/04/02 03:06:23;;;;;;;2.40;2.20;;;;;;;;;;8152273;29;20782;-56
2022/04/02 03:10:25;;;;;;;2.67;2.28;;;;;;;;;;8150667;28;20149;-56
2022/04/02 03:14:25;;;;;;;2.55;2.35;;;;;;;;;;8150006;29;20063;-57
2022/04/02 03:18:25;;;;;;;2.10;1.90;;;;;;;;;;8150571;28;20736;-57
2022/04/02 03:22:27;;;;;;;2.67;2.47;;;;;;;;;;8148396;28;20275;-56
2022/04/02 03:26:27;;;;;;;2.45;1.95;;;;;;;;;;8151283;28;20774;-57
2022/04/02 03:30:27;;;;;;;2.38;2.17;;;;;;;;;;8147169;28;20043;-57
2022/04/02 03:34:28;;;;;;;3.90;2.22;;;;;;;;;;8150574;28;20640;-57
2022/04/02 03:38:28;;;;;;;3.67;2.10;;;;;;;;;;8148364;29;20039;-56
2022/04/02 03:42:28;;;;;;;3.63;1.98;;;;;;;;;;8148780;28;20030;-57
2022/04/02 03:50:47;;;;;;;2.60;2.03;;;;;;;;;;8150378;28;20301;-57
2022/04/02 03:54:47;;;;;;;5.15;2.40;;;;;;;;;;8148596;29;20569;-56
2022/04/02 03:58:47;;;;;;;2.53;2.20;;;;;;;;;;8150331;29;20049;-57
2022/04/02 04:02:48;;;;;;;2.47;2.20;;;;;;;;;;8147471;28;20745;-57
2022/04/02 04:06:48;;;;;;;2.95;2.35;;;;;;;;;;8149642;28;20295;-56
2022/04/02 04:10:49;;;;;;;2.85;2.30;;;;;;;;;;8148551;28;20026;-57
2022/04/02 08:40:07;;;;;;;3.88;2.20;;;;;;;;;;8209463;23;20061;-70
2022/04/02 08:44:11;;;;;;;3.63;2.08;;;;;;;;;;8196616;28;20055;-71
2022/04/02 08:48:25;;;;;;;2.30;2.10;;;;;;;;;;8199416;28;20086;-71
2022/04/02 08:52:40;;;;;;;2.80;2.10;;;;;;;;;;8198177;28;20039;-71
2022/04/02 08:56:45;;;;;;;3.10;2.40;;;;;;;;;;8199972;28;20088;-70
2022/04/02 09:00:52;;;;;;;5.82;2.25;;;;;;;;;;8196510;28;20094;-71
2022/04/02 09:05:07;;;;;;;3.45;2.10;;;;;;;;;;8200217;28;20896;-71
2022/04/02 09:09:32;;;;;;;2.95;2.10;;;;;;;;;;8198577;28;20038;-71
2022/04/02 09:13:44;;;;;;;2.47;2.08;;;;;;;;;;8197745;28;20023;-71
2022/04/02 09:18:03;;;;;;;3.88;2.30;;;;;;;;;;8199671;28;20066;-71
2022/04/02 09:22:29;;;;;;;4.22;2.30;;;;;;;;;;8196859;28;20031;-71
2022/04/02 09:26:48;;;;;;;2.97;2.17;;;;;;;;;;8197885;28;20030;-71
2022/04/02 09:30:48;;;;;;;4.53;2.20;;;;;;;;;;8197985;28;20653;-71
2022/04/02 09:35:07;;;;;;;3.55;2.28;;;;;;;;;;8219127;28;20081;-71
2022/04/02 09:39:13;;;;;;;2.80;2.42;;;;;;;;;;8230081;28;20034;-71
2022/04/02 09:43:17;;;;;;;2.58;2.38;;;;;;;;;;8230455;28;20030;-71
2022/04/02 09:47:17;;;;;;;;;;;;;;;;;;8232355;28;20066;-71
2022/04/02 09:51:20;;;;;;;2.42;2.20;;;;;;;;;;8228595;28;19918;-71
2022/04/02 09:55:21;;;;;;;3.05;2.47;;;;;;;;;;8228562;28;20112;-71
2022/04/02 09:59:29;;;;;;;3.47;2.53;;;;;;;;;;8227295;28;20045;-71
2022/04/02 10:03:49;;;;;;;5.97;2.50;;;;;;;;;;8221199;28;20522;-71
2022/04/02 10:08:03;;;;;;;2.95;2.38;;;;;;;;;;8174329;28;20066;-71
2022/04/02 10:12:03;;;;;;;3.40;2.70;;;;;;;;;;8205421;28;20030;-71
2022/04/02 10:16:05;;;;;;;3.17;2.63;;;;;;;;;;8211899;28;20217;-71
2022/04/02 10:20:06;;;;;;;4.85;2.60;;;;;;;;;;8227369;28;20084;-71
2022/04/02 10:24:16;;;;;;;3.03;2.22;;;;;;;;;;8229310;28;20105;-72
2022/04/02 10:28:19;;;;;;;2.90;2.40;;;;;;;;;;8227531;28;20030;-71
2022/04/02 10:32:19;;;;;;;7.15;2.80;;;;;;;;;;8226067;28;20157;-71
2022/04/02 10:36:20;;;;;;;2.83;2.28;;;;;;;;;;8233504;28;20019;-71
2022/04/02 10:40:22;;;;;;;3.03;2.60;;;;;;;;;;8225421;28;20108;-71
2022/04/02 10:44:25;;;;;;;4.78;2.58;;;;;;;;;;8228098;28;20106;-72
2022/04/02 10:48:28;;;;;;;3.63;2.63;;;;;;;;;;8230166;28;20546;-71
2022/04/02 10:52:28;;;;;;;4.13;2.55;;;;;;;;;;8231978;28;20904;-71
2022/04/02 10:56:33;;;;;;;2.90;2.50;;;;;;;;;;8232700;28;20990;-71
2022/04/02 11:00:36;;;;;;;3.70;2.60;;;;;;;;;;8231821;28;20126;-72
2022/04/02 11:04:44;;;;;;;4.65;2.70;;;;;;;;;;8226103;28;20721;-72
2022/04/02 11:08:44;;;;;;;4.05;2.90;;;;;;;;;;8226501;28;20469;-71
2022/04/02 11:12:45;;;;;;;7.75;2.90;;;;;;;;;;8226746;28;20023;-71
2022/04/02 11:16:45;;;;;;;5.85;3.00;;;;;;;;;;8226792;28;20042;-71
2022/04/02 11:20:47;;;;;;;4.80;3.00;;;;;;;;;;8224087;28;20034;-72
2022/04/02 11:25:01;;;;;;;4.63;3.03;;;;;;;;;;8225975;28;20035;-71
2022/04/02 11:29:02;;;;;;;4.27;2.90;;;;;;;;;;8224811;28;20089;-72
2022/04/02 11:33:04;;;;;;;3.35;2.85;;;;;;;;;;8226543;28;20034;-72
2022/04/02 11:37:07;;;;;;;5.00;3.05;;;;;;;;;;8227157;28;20026;-72
2022/04/02 11:41:27;;;;;;;6.07;3.17;;;;;;;;;;8223153;28;20034;-72
2022/04/02 11:45:28;;;;;;;4.53;2.75;;;;;;;;;;8223593;28;20046;-72
2022/04/02 11:49:29;;;;;;;5.25;2.95;;;;;;;;;;8224147;28;20041;-72
2022/04/02 11:53:30;;;;;;;3.10;2.80;;;;;;;;;;8226360;28;20110;-72
2022/04/02 11:57:31;;;;;;;3.88;2.90;;;;;;;;;;8223793;28;20026;-72
2022/04/02 12:01:41;;;;;;;5.10;3.15;;;;;;;;;;8222806;28;20034;-72
2022/04/02 12:05:42;;;;;;;5.30;3.28;;;;;;;;;;8227950;28;20077;-72
2022/04/02 12:09:50;;;;;;;4.32;2.90;;;;;;;;;;8223163;28;20112;-72
2022/04/02 12:13:54;;;;;;;3.80;2.80;;;;;;;;;;8224788;28;20354;-72
2022/04/02 12:18:06;;;;;;;8.88;3.60;;;;;;;;;;8218699;28;20558;-71
2022/04/02 12:22:20;;;;;;;4.32;2.97;;;;;;;;;;8219997;28;20926;-71
2022/04/02 12:26:22;;;;;;;4.15;3.15;;;;;;;;;;8220239;28;20117;-71
2022/04/02 12:30:23;;;;;;;4.25;3.28;;;;;;;;;;8221379;28;20038;-72
2022/04/02 12:34:23;;;;;;;4.65;3.00;;;;;;;;;;8219689;28;20141;-72
2022/04/02 12:38:28;;;;;;;3.58;2.97;;;;;;;;;;8220878;28;20026;-72
2022/04/02 12:42:39;;;;;;;5.80;3.50;;;;;;;;;;8219805;28;20108;-71
2022/04/02 12:46:39;;;;;;;7.00;3.65;;;;;;;;;;8220984;28;20089;-71
2022/04/02 12:50:59;;;;;;;3.30;3.00;;;;;;;;;;8218227;28;20034;-71
2022/04/02 12:54:59;;;;;;;3.85;3.20;;;;;;;;;;8221970;28;20261;-72
2022/04/02 12:59:00;;;;;;;4.38;3.13;;;;;;;;;;8220922;28;20110;-71
2022/04/02 13:03:01;;;;;;;3.45;2.85;;;;;;;;;;8220169;28;20847;-71
2022/04/02 13:07:03;;;;;;;5.30;3.33;;;;;;;;;;8219575;28;20117;-72
2022/04/02 13:11:04;;;;;;;4.25;3.38;;;;;;;;;;8218637;28;20022;-71
2022/04/02 13:15:08;;;;;;;6.80;3.25;;;;;;;;;;8223210;28;20507;-72
2022/04/02 13:23:37;;;;;;;3.00;2.65;;;;;;;;;;8228854;28;20141;-71
2022/04/02 13:27:50;;;;;;;4.72;3.40;;;;;;;;;;8224521;28;20030;-72
2022/04/02 13:31:59;;;;;;;4.70;3.10;;;;;;;;;;8225711;28;20048;-72
2022/04/02 13:36:12;;;;;;;3.58;3.10;;;;;;;;;;8225548;28;20031;-72
2022/04/02 13:40:13;;;;;;;4.35;3.28;;;;;;;;;;8226148;28;20023;-69
2022/04/02 13:44:19;;;;;;;4.82;3.20;;;;;;;;;;8225904;28;20026;-72
2022/04/02 13:48:21;;;;;;;5.85;3.05;;;;;;;;;;8224073;28;20067;-72
2022/04/02 13:52:22;;;;;;;4.53;2.72;;;;;;;;;;8225775;28;20551;-72
2022/04/02 13:56:24;;;;;;;3.47;2.92;;;;;;;;;;8223923;28;20771;-72
2022/04/02 14:00:26;;;;;;;6.05;2.83;;;;;;;;;;8224224;28;20043;-72
2022/04/02 14:04:31;;;;;;;2.75;2.38;;;;;;;;;;8230233;28;20031;-73
2022/04/02 14:08:36;;;;;;;3.17;2.42;;;;;;;;;;8229448;28;20065;-73
2022/04/02 14:12:41;;;;;;;3.97;2.83;;;;;;;;;;8223436;28;20034;-74
2022/04/02 14:16:48;;;;;;;5.10;2.83;;;;;;;;;;8229698;28;20496;-76
2022/04/02 14:20:50;;;;;;;3.95;2.70;;;;;;;;;;8223685;28;20123;-74
2022/04/02 14:24:53;;;;;;;4.82;2.65;;;;;;;;;;8245320;28;20030;-78
2022/04/02 14:28:53;;;;;;;7.88;2.35;;;;;;;;;;8227608;28;20026;-74
2022/04/02 14:33:16;;;;;;;3.72;2.67;;;;;;;;;;8225425;28;20792;-74
2022/04/02 14:37:39;;;;;;;4.63;2.47;;;;;;;;;;8228438;28;20041;-74
2022/04/02 14:41:59;;;;;;;4.55;2.55;;;;;;;;;;8224710;28;20022;-74
2022/04/02 14:46:18;;;;;;;3.75;2.30;;;;;;;;;;8227593;28;20030;-74
2022/04/02 14:50:37;;;;;;;4.60;2.47;;;;;;;;;;8221759;28;20981;-74
2022/04/02 14:54:40;;;;;;;4.85;2.50;;;;;;;;;;8222234;28;20082;-74
2022/04/02 14:58:59;;;;;;;4.17;2.30;;;;;;;;;;8223736;28;20475;-74
2022/04/02 15:02:59;;;;;;;3.25;2.30;;;;;;;;;;8221653;28;20081;-73
2022/04/02 15:07:02;;;;;;;4.10;2.72;;;;;;;;;;8222366;28;20366;-79
2022/04/02 15:11:04;;;;;;;4.63;2.47;;;;;;;;;;8223180;28;20118;-74
2022/04/02 15:15:06;;;;;;;6.07;2.58;;;;;;;;;;8224186;28;20030;-73
2022/04/02 15:19:23;;;;;;;4.50;2.63;;;;;;;;;;8220697;28;20109;-74
2022/04/02 15:23:23;;;;;;;3.72;2.30;;;;;;;;;;8225788;28;20069;-74
2022/04/02 15:27:42;;;;;;;4.03;2.40;;;;;;;;;;8223324;28;20070;-75
2022/04/02 15:31:59;;;;;;;3.22;2.42;;;;;;;;;;8223428;28;20500;-74
2022/04/02 15:36:03;;;;;;;2.80;2.30;;;;;;;;;;8223021;28;20750;-75
2022/04/02 15:40:06;;;;;;;4.00;2.20;;;;;;;;;;8222612;28;20969;-73
2022/04/02 15:44:06;;;;;;;4.43;2.50;;;;;;;;;;8224448;28;20037;-76
2022/04/02 15:48:07;;;;;;;3.40;2.28;;;;;;;;;;8221662;28;20522;-75
2022/04/02 15:52:13;;;;;;;2.83;1.98;;;;;;;;;;8224741;28;20034;-73
2022/04/02 15:56:13;;;;;;;5.25;2.45;;;;;;;;;;8222036;28;20034;-74
2022/04/02 16:00:13;;;;;;;2.80;2.10;;;;;;;;;;8220918;28;20526;-74
2022/04/02 16:04:18;;;;;;;3.35;2.45;;;;;;;;;;8222279;28;20428;-74
2022/04/02 16:08:20;;;;;;;2.38;2.03;;;;;;;;;;8220238;28;20592;-73
2022/04/02 16:12:25;;;;;;;2.83;2.20;;;;;;;;;;8220880;28;20088;-72
2022/04/02 16:16:25;;;;;;;4.30;2.58;;;;;;;;;;8220672;28;20026;-73
2022/04/02 16:20:26;;;;;;;4.75;2.65;;;;;;;;;;8218638;28;20026;-72
2022/04/02 16:24:30;;;;;;;3.10;2.65;;;;;;;;;;8222468;28;20045;-72
2022/04/02 16:28:30;;;;;;;4.57;3.03;;;;;;;;;;8221990;28;20034;-72
2022/04/02 16:32:31;;;;;;;5.57;3.15;;;;;;;;;;8224296;28;20460;-72
2022/04/02 16:36:31;;;;;;;2.88;2.55;;;;;;;;;;8220157;28;20029;-72
2022/04/02 16:40:31;;;;;;;2.85;2.58;;;;;;;;;;8240110;28;20149;-72
2022/04/02 16:44:31;;;;;;;4.43;2.83;;;;;;;;;;8221883;28;20054;-73
2022/04/02 16:48:32;;;;;;;7.40;3.13;;;;;;;;;;8226320;28;20034;-73
2022/04/02 16:52:34;;;;;;;4.93;3.08;;;;;;;;;;8228548;28;20027;-72
2022/04/02 16:56:34;;;;;;;5.45;3.47;;;;;;;;;;8250836;28;20838;-72
2022/04/02 17:00:35;;;;;;;3.53;2.80;;;;;;;;;;8231056;28;20038;-72
2022/04/02 17:04:35;;;;;;;5.60;3.28;;;;;;;;;;8223735;28;20026;-72
2022/04/02 17:08:35;;;;;;;4.03;2.90;;;;;;;;;;8228521;28;21440;-72
2022/04/02 17:12:35;;;;;;;3.75;3.00;;;;;;;;;;8225453;28;20881;-73
2022/04/02 17:16:36;;;;;;;3.60;2.60;;;;;;;;;;8224828;28;20039;-73
2022/04/02 17:20:37;;;;;;;4.22;3.17;;;;;;;;;;8226917;28;20034;-70
2022/04/02 17:24:39;;;;;;;4.25;2.97;;;;;;;;;;8228770;28;20092;-70
2022/04/02 17:28:44;;;;;;;5.15;2.90;;;;;;;;;;8224943;28;20038;-70
2022/04/02 17:32:44;;;;;;;4.05;2.88;;;;;;;;;;8226297;28;20047;-69
2022/04/02 17:36:44;;;;;;;3.10;2.50;;;;;;;;;;8225318;28;20033;-71
2022/04/02 17:40:47;;;;;;;4.28;3.03;;;;;;;;;;8225684;28;20019;-70
2022/04/02 17:44:47;;;;;;;6.90;2.30;;;;;;;;;;8226141;28;20026;-69
2022/04/02 17:48:47;;;;;;;6.32;2.50;;;;;;;;;;8226134;28;20034;-69
2022/04/02 17:52:52;;;;;;;3.30;2.33;;;;;;;;;;8226022;28;20023;-70
2022/04/02 17:56:52;;;;;;;3.15;2.72;;;;;;;;;;8225768;28;20018;-70
2022/04/02 18:00:56;;;;;;;3.40;2.50;;;;;;;;;;8223665;28;20031;-73
2022/04/02 18:04:57;;;;;;;3.38;2.78;;;;;;;;;;8227403;28;20040;-69
2022/04/02 18:09:00;;;;;;;4.20;2.75;;;;;;;;;;8222713;28;20413;-69
2022/04/02 18:13:02;;;;;;;4.07;2.73;;;;;;;;;;8223781;28;20114;-70
2022/04/02 18:17:02;;;;;;;4.90;3.08;;;;;;;;;;8228799;28;20030;-70
2022/04/02 18:21:03;;;;;;;3.33;2.58;;;;;;;;;;8230809;28;20026;-70
2022/04/02 18:25:03;;;;;;;3.00;2.15;;;;;;;;;;8227412;28;20026;-70
2022/04/02 18:29:04;;;;;;;3.10;2.50;;;;;;;;;;8229395;28;20561;-70
2022/04/02 18:33:04;;;;;;;4.30;2.53;;;;;;;;;;8224088;28;20428;-70
2022/04/02 18:37:04;;;;;;;8.85;2.95;;;;;;;;;;8223310;28;20632;-70
2022/04/02 18:41:04;;;;;;;2.75;2.05;;;;;;;;;;8228364;28;20040;-72
2022/04/02 18:45:05;;;;;;;3.15;2.30;;;;;;;;;;8239153;28;20019;-72
2022/04/02 18:49:06;;;;;;;3.00;2.38;;;;;;;;;;8263945;28;20010;-73
2022/04/02 18:53:07;;;;;;;3.10;2.17;;;;;;;;;;8228782;28;20030;-73
2022/04/02 18:57:07;;;;;;;4.50;2.63;;;;;;;;;;8228725;28;20030;-72
2022/04/02 19:01:07;;;;;;;3.08;2.65;;;;;;;;;;8233663;28;20033;-73
2022/04/02 19:05:08;;;;;;;2.70;2.35;;;;;;;;;;8244896;28;20038;-73
2022/04/02 19:09:08;;;;;;;2.72;2.35;;;;;;;;;;8227410;28;20026;-73
2022/04/02 19:13:08;;;;;;;4.88;2.67;;;;;;;;;;8229148;28;20137;-73
2022/04/02 19:17:09;;;;;;;3.80;2.70;;;;;;;;;;8230141;28;20046;-73
2022/04/02 19:21:09;;;;;;;3.88;2.65;;;;;;;;;;8224438;28;20027;-74
2022/04/02 19:25:10;;;;;;;5.13;2.95;;;;;;;;;;8226169;28;20030;-73
2022/04/02 19:29:11;;;;;;;3.17;2.53;;;;;;;;;;8229620;28;20503;-73
2022/04/02 19:33:11;;;;;;;3.78;2.60;;;;;;;;;;8221494;28;20035;-73
2022/04/02 19:37:11;;;;;;;3.50;2.85;;;;;;;;;;8220014;28;20033;-73
2022/04/02 19:41:11;;;;;;;4.90;3.13;;;;;;;;;;8214095;28;20324;-73
2022/04/02 19:45:12;;;;;;;3.40;2.88;;;;;;;;;;8212996;28;20026;-72
2022/04/02 19:49:12;;;;;;;2.80;2.60;;;;;;;;;;8213202;28;20042;-73
2022/04/02 19:53:12;;;;;;;3.25;2.60;;;;;;;;;;8216836;28;20297;-73
2022/04/02 19:57:12;;;;;;;4.55;2.97;;;;;;;;;;8226367;28;20018;-73
2022/04/02 20:01:14;;;;;;;3.63;3.20;;;;;;;;;;8227220;28;20034;-73
2022/04/02 20:05:14;;;;;;;6.05;3.22;;;;;;;;;;8228660;28;20141;-74
2022/04/02 20:09:14;;;;;;;3.28;2.75;;;;;;;;;;8238797;28;20034;-74
2022/04/02 20:13:16;;;;;;;6.05;2.95;;;;;;;;;;8235732;28;20521;-73
2022/04/02 20:17:16;;;;;;;4.85;3.70;;;;;;;;;;8233932;28;20496;-74
2022/04/02 20:21:20;;;;;;;4.45;3.33;;;;;;;;;;8232423;28;20054;-73
2022/04/02 20:25:20;;;;;;;4.47;2.88;;;;;;;;;;8243525;28;20033;-74
2022/04/02 20:29:22;;;;;;;8.63;3.83;;;;;;;;;;8229648;28;20038;-74
2022/04/02 20:33:22;;;;;;;7.78;4.95;;;;;;;;;;8232319;28;20117;-73
2022/04/02 20:37:22;;;;;;;6.10;4.15;;;;;;;;;;8236178;28;20038;-73
2022/04/02 20:41:22;;;;;;;3.70;3.00;;;;;;;;;;8236125;28;20026;-73
2022/04/02 20:45:23;;;;;;;3.45;2.90;;;;;;;;;;8234985;28;20038;-73
2022/04/02 20:49:23;;;;;;;6.35;3.10;;;;;;;;;;8239140;28;20754;-73
2022/04/02 20:53:24;;;;;;;3.85;3.28;;;;;;;;;;8243203;28;20036;-73
2022/04/02 20:57:25;;;;;;;3.90;3.25;;;;;;;;;;8244820;28;20444;-73
2022/04/02 21:01:25;;;;;;;3.97;3.10;;;;;;;;;;8241782;28;20386;-73
2022/04/02 21:05:28;;;;;;;3.42;2.83;;;;;;;;;;8232075;28;20037;-73
2022/04/02 21:09:28;;;;;;;4.53;3.20;;;;;;;;;;8238655;28;20030;-73
2022/04/02 21:13:28;;;;;;;3.72;3.10;;;;;;;;;;8235464;28;20513;-73
2022/04/02 21:17:29;;;;;;;4.30;3.25;;;;;;;;;;8239069;28;20069;-73
2022/04/02 21:21:30;;;;;;;3.50;3.20;;;;;;;;;;8229462;28;20049;-73
2022/04/02 21:25:30;;;;;;;10.27;6.00;;;;;;;;;;8231691;28;20292;-73
2022/04/02 21:29:31;;;;;;;12.00;4.78;;;;;;;;;;8231526;28;20030;-73
2022/04/02 21:33:33;;;;;;;4.25;3.15;;;;;;;;;;8232856;28;20037;-73
2022/04/02 21:37:34;;;;;;;3.85;2.90;;;;;;;;;;8232327;28;20138;-72
2022/04/02 21:41:35;;;;;;;6.72;3.35;;;;;;;;;;8235086;28;20508;-73
2022/04/02 21:45:35;;;;;;;3.63;3.05;;;;;;;;;;8237917;28;20042;-73
2022/04/02 21:49:35;;;;;;;5.05;3.05;;;;;;;;;;8232869;28;20053;-73
2022/04/02 21:53:36;;;;;;;3.47;3.13;;;;;;;;;;8240118;28;20062;-73
2022/04/02 21:57:36;;;;;;;3.60;3.08;;;;;;;;;;8234912;28;20365;-73
2022/04/02 22:01:59;;;;;;;2.90;2.60;;;;;;;;;;8236462;28;20137;-72
2022/04/02 22:06:00;;;;;;;3.95;3.00;;;;;;;;;;8233891;28;20258;-73
2022/04/02 22:10:01;;;;;;;2.80;2.40;;;;;;;;;;8233040;28;20029;-72
2022/04/02 22:14:01;;;;;;;4.43;3.08;;;;;;;;;;8229158;28;20507;-73
2022/04/02 22:18:01;;;;;;;5.88;3.03;;;;;;;;;;8236233;28;20045;-72
2022/04/02 22:22:03;;;;;;;8.70;6.00;;;;;;;;;;8230596;28;20046;-72
2022/04/02 22:26:03;;;;;;;8.50;5.18;;;;;;;;;;8229060;28;20033;-72
2022/04/02 22:30:04;;;;;;;3.80;2.83;;;;;;;;;;8228208;28;20870;-73
2022/04/02 22:34:04;;;;;;;6.35;3.13;;;;;;;;;;8228134;28;20097;-72
2022/04/02 22:38:07;;;;;;;3.65;2.97;;;;;;;;;;8228122;28;20026;-72
2022/04/02 22:42:08;;;;;;;3.78;2.97;;;;;;;;;;8226685;28;20039;-72
2022/04/02 22:46:08;;;;;;;4.05;3.05;;;;;;;;;;8227820;28;20930;-72
2022/04/02 22:50:09;;;;;;;3.72;2.78;;;;;;;;;;8228514;28;20034;-72
2022/04/02 22:54:10;;;;;;;3.25;2.85;;;;;;;;;;8228089;28;20019;-72
2022/04/02 22:58:10;;;;;;;5.10;3.03;;;;;;;;;;8224601;28;20030;-72
2022/04/02 23:02:11;;;;;;;3.05;2.63;;;;;;;;;;8224159;28;20644;-72
2022/04/02 23:06:11;;;;;;;4.68;3.03;;;;;;;;;;8226032;28;20599;-72
2022/04/02 23:10:11;;;;;;;3.25;2.80;;;;;;;;;;8225881;28;20055;-72
2022/04/02 23:14:11;;;;;;;4.38;3.10;;;;;;;;;;8226203;28;20320;-72
2022/04/02 23:18:12;;;;;;;3.03;2.70;;;;;;;;;;8224082;28;20061;-72
2022/04/02 23:22:15;;;;;;;3.30;3.00;;;;;;;;;;8223449;28;20258;-72
2022/04/02 23:26:15;;;;;;;3.22;2.63;;;;;;;;;;8223938;28;20038;-72
2022/04/02 23:30:16;;;;;;;3.05;2.60;;;;;;;;;;8220690;28;20064;-72
2022/04/02 23:34:16;;;;;;;3.50;2.80;;;;;;;;;;8222277;28;20033;-72
2022/04/02 23:38:16;;;;;;;5.30;3.03;;;;;;;;;;8235190;28;20113;-72
2022/04/02 23:42:16;;;;;;;2.90;2.55;;;;;;;;;;8220428;28;20352;-71
2022/04/02 23:46:17;;;;;;;4.82;2.92;;;;;;;;;;8222497;28;20046;-72
2022/04/02 23:50:18;;;;;;;2.90;2.70;;;;;;;;;;8226394;28;20065;-72
2022/04/02 23:54:18;;;;;;;4.93;3.00;;;;;;;;;;8226394;28;20026;-72
2022/04/02 23:58:18;;;;;;;4.40;3.40;;;;;;;;;;8224788;28;20030;-71
